createdAt,value
2023-04-19T00:00:49.641Z,0.00
2023-04-19T00:01:49.821Z,0.00
2023-04-19T00:02:50.101Z,0.00
2023-04-19T00:03:50.367Z,0.00
2023-04-19T00:04:50.361Z,0.00
2023-04-19T00:05:50.479Z,0.00
2023-04-19T00:06:50.649Z,0.00
2023-04-19T00:07:50.821Z,0.00
2023-04-19T00:08:50.973Z,0.00
2023-04-19T00:09:51.158Z,0.00
2023-04-19T00:10:51.312Z,0.00
2023-04-19T00:11:51.507Z,0.00
2023-04-19T00:12:51.657Z,0.00
2023-04-19T00:13:51.820Z,0.00
2023-04-19T00:14:51.987Z,0.00
2023-04-19T00:15:52.150Z,0.00
2023-04-19T00:16:52.374Z,0.00
2023-04-19T00:17:52.502Z,0.00
2023-04-19T00:18:52.687Z,0.00
2023-04-19T00:19:52.829Z,0.00
2023-04-19T00:20:52.986Z,0.00
2023-04-19T00:21:53.162Z,0.00
2023-04-19T00:22:53.328Z,0.00
2023-04-19T00:23:53.493Z,0.00
2023-04-19T00:24:53.664Z,0.00
2023-04-19T00:25:53.829Z,0.00
2023-04-19T00:26:54.008Z,0.00
2023-04-19T00:27:54.175Z,0.00
2023-04-19T00:28:54.342Z,0.00
2023-04-19T00:29:54.502Z,0.00
2023-04-19T00:30:54.727Z,0.00
2023-04-19T00:31:54.871Z,0.00
2023-04-19T00:32:55.080Z,0.00
2023-04-19T00:33:55.193Z,0.00
2023-04-19T00:34:55.354Z,0.00
2023-04-19T00:35:55.531Z,0.00
2023-04-19T00:36:55.709Z,0.00
2023-04-19T00:37:55.851Z,0.00
2023-04-19T00:38:56.019Z,0.00
2023-04-19T00:39:56.180Z,0.00
2023-04-19T00:40:56.354Z,0.00
2023-04-19T00:41:56.541Z,0.00
2023-04-19T00:42:56.701Z,0.00
2023-04-19T00:43:56.861Z,0.00
2023-04-19T00:44:57.032Z,0.00
2023-04-19T00:45:57.240Z,0.00
2023-04-19T00:46:57.387Z,0.00
2023-04-19T00:47:57.589Z,0.00
2023-04-19T00:48:57.751Z,0.00
2023-04-19T00:49:57.913Z,0.00
2023-04-19T00:50:58.110Z,0.00
2023-04-19T00:51:58.255Z,0.00
2023-04-19T00:52:58.421Z,0.00
2023-04-19T00:53:58.623Z,0.00
2023-04-19T00:54:58.780Z,0.00
2023-04-19T00:55:58.980Z,0.00
2023-04-19T00:56:59.165Z,0.00
2023-04-19T00:57:59.318Z,0.00
2023-04-19T00:58:59.493Z,0.00
2023-04-19T00:59:59.653Z,0.00
2023-04-19T01:01:00.026Z,0.00
2023-04-19T01:02:00.136Z,0.00
2023-04-19T01:03:00.344Z,0.00
2023-04-19T01:04:00.438Z,0.00
2023-04-19T01:05:00.504Z,0.00
2023-04-19T01:06:00.691Z,0.00
2023-04-19T01:07:00.847Z,0.00
2023-04-19T01:08:01.038Z,0.00
2023-04-19T01:09:01.175Z,0.00
2023-04-19T01:10:01.344Z,0.00
2023-04-19T01:11:01.563Z,0.00
2023-04-19T01:12:01.702Z,0.00
2023-04-19T01:13:01.851Z,0.00
2023-04-19T01:14:02.029Z,0.00
2023-04-19T01:15:02.198Z,0.00
2023-04-19T01:16:02.448Z,0.00
2023-04-19T01:17:02.553Z,0.00
2023-04-19T01:18:02.759Z,0.00
2023-04-19T01:19:02.906Z,0.00
2023-04-19T01:20:03.071Z,0.00
2023-04-19T01:21:03.247Z,0.00
2023-04-19T01:22:03.422Z,0.00
2023-04-19T01:23:03.579Z,0.00
2023-04-19T01:24:03.753Z,0.00
2023-04-19T01:25:03.917Z,0.00
2023-04-19T01:26:04.100Z,0.00
2023-04-19T01:27:04.275Z,0.00
2023-04-19T01:28:04.430Z,0.00
2023-04-19T01:29:04.602Z,0.00
2023-04-19T01:30:04.790Z,0.00
2023-04-19T01:31:05.021Z,0.00
2023-04-19T01:32:05.130Z,0.00
2023-04-19T01:33:05.318Z,0.00
2023-04-19T01:34:05.467Z,0.00
2023-04-19T01:35:05.637Z,0.00
2023-04-19T01:36:05.817Z,0.00
2023-04-19T01:37:05.991Z,0.00
2023-04-19T01:38:06.156Z,0.00
2023-04-19T01:39:06.300Z,0.00
2023-04-19T01:40:06.516Z,0.00
2023-04-19T01:41:06.690Z,0.00
2023-04-19T01:42:06.854Z,0.00
2023-04-19T01:43:07.040Z,0.00
2023-04-19T01:44:07.220Z,0.00
2023-04-19T01:45:07.390Z,0.00
2023-04-19T01:46:07.557Z,0.00
2023-04-19T01:47:07.800Z,0.00
2023-04-19T01:48:08.014Z,0.00
2023-04-19T01:49:08.098Z,0.00
2023-04-19T01:50:08.272Z,0.00
2023-04-19T01:51:08.437Z,0.00
2023-04-19T01:52:08.600Z,0.00
2023-04-19T01:53:08.754Z,0.00
2023-04-19T01:54:08.951Z,0.00
2023-04-19T01:55:09.116Z,0.00
2023-04-19T01:56:09.326Z,0.00
2023-04-19T01:57:09.497Z,0.00
2023-04-19T01:58:09.651Z,0.00
2023-04-19T01:59:09.852Z,0.00
2023-04-19T02:00:10.022Z,0.00
2023-04-19T02:01:10.214Z,0.00
2023-04-19T02:02:10.394Z,0.00
2023-04-19T02:03:10.645Z,0.00
2023-04-19T02:04:10.730Z,0.00
2023-04-19T02:05:10.878Z,0.00
2023-04-19T02:06:11.039Z,0.00
2023-04-19T02:07:11.214Z,0.00
2023-04-19T02:08:11.384Z,0.00
2023-04-19T02:09:11.556Z,0.00
2023-04-19T02:10:11.732Z,0.00
2023-04-19T02:11:11.887Z,0.00
2023-04-19T02:12:12.070Z,0.00
2023-04-19T02:13:12.224Z,0.00
2023-04-19T02:14:12.388Z,0.00
2023-04-19T02:15:12.566Z,0.00
2023-04-19T02:16:12.781Z,0.00
2023-04-19T02:17:12.911Z,0.00
2023-04-19T02:18:13.071Z,0.00
2023-04-19T02:19:13.240Z,0.00
2023-04-19T02:20:13.411Z,0.00
2023-04-19T02:21:13.587Z,0.00
2023-04-19T02:22:13.753Z,0.00
2023-04-19T02:23:13.909Z,0.00
2023-04-19T02:24:14.334Z,0.00
2023-04-19T02:25:14.291Z,0.00
2023-04-19T02:26:14.471Z,0.00
2023-04-19T02:27:14.621Z,0.00
2023-04-19T02:28:14.771Z,0.00
2023-04-19T02:29:14.939Z,0.00
2023-04-19T02:30:15.154Z,0.00
2023-04-19T02:31:15.314Z,0.00
2023-04-19T02:32:15.521Z,0.00
2023-04-19T02:33:15.692Z,0.00
2023-04-19T02:34:16.292Z,0.00
2023-04-19T02:35:16.054Z,0.00
2023-04-19T02:36:16.214Z,0.00
2023-04-19T02:37:16.364Z,0.00
2023-04-19T02:38:16.557Z,0.00
2023-04-19T02:39:16.716Z,0.00
2023-04-19T02:40:16.899Z,0.00
2023-04-19T02:41:17.056Z,0.00
2023-04-19T02:42:17.249Z,0.00
2023-04-19T02:43:17.400Z,0.00
2023-04-19T02:44:17.771Z,0.00
2023-04-19T02:45:17.781Z,0.00
2023-04-19T02:46:17.985Z,0.00
2023-04-19T02:47:18.104Z,0.00
2023-04-19T02:48:18.291Z,0.00
2023-04-19T02:49:18.470Z,0.00
2023-04-19T02:50:18.653Z,0.00
2023-04-19T02:51:18.830Z,0.00
2023-04-19T02:52:18.999Z,0.00
2023-04-19T02:53:19.147Z,0.00
2023-04-19T02:54:19.384Z,0.00
2023-04-19T02:55:19.519Z,0.00
2023-04-19T02:56:19.679Z,0.00
2023-04-19T02:57:19.840Z,0.00
2023-04-19T02:58:19.996Z,0.00
2023-04-19T02:59:20.201Z,0.00
2023-04-19T03:00:20.339Z,0.00
2023-04-19T03:01:20.540Z,0.00
2023-04-19T03:02:20.746Z,0.00
2023-04-19T03:03:20.937Z,0.00
2023-04-19T03:04:21.098Z,0.00
2023-04-19T03:05:21.222Z,0.00
2023-04-19T03:06:21.441Z,0.00
2023-04-19T03:07:21.571Z,0.00
2023-04-19T03:08:21.741Z,0.00
2023-04-19T03:09:21.897Z,0.00
2023-04-19T03:10:22.063Z,0.00
2023-04-19T03:11:22.243Z,0.00
2023-04-19T03:12:22.433Z,0.00
2023-04-19T03:13:22.599Z,0.00
2023-04-19T03:14:22.770Z,0.00
2023-04-19T03:15:22.945Z,0.00
2023-04-19T03:16:23.306Z,0.00
2023-04-19T03:17:23.296Z,0.00
2023-04-19T03:18:23.462Z,0.00
2023-04-19T03:19:23.625Z,0.00
2023-04-19T03:20:23.785Z,0.00
2023-04-19T03:21:23.941Z,0.00
2023-04-19T03:22:24.160Z,0.00
2023-04-19T03:23:24.288Z,0.00
2023-04-19T03:24:24.491Z,0.00
2023-04-19T03:25:24.644Z,0.00
2023-04-19T03:26:24.847Z,0.00
2023-04-19T03:27:24.987Z,0.00
2023-04-19T03:28:25.189Z,0.00
2023-04-19T03:29:25.362Z,0.00
2023-04-19T03:30:25.525Z,0.00
2023-04-19T03:31:25.703Z,0.00
2023-04-19T03:32:25.898Z,0.00
2023-04-19T03:33:26.031Z,0.00
2023-04-19T03:34:26.240Z,0.00
2023-04-19T03:35:26.461Z,0.00
2023-04-19T03:36:26.582Z,0.00
2023-04-19T03:37:26.780Z,0.00
2023-04-19T03:38:26.926Z,0.00
2023-04-19T03:39:27.098Z,0.00
2023-04-19T03:40:27.277Z,0.00
2023-04-19T03:41:27.469Z,0.00
2023-04-19T03:42:28.996Z,0.00
2023-04-19T03:43:27.799Z,0.00
2023-04-19T03:44:27.990Z,0.00
2023-04-19T03:45:28.138Z,0.00
2023-04-19T03:46:28.327Z,0.00
2023-04-19T03:47:28.540Z,0.00
2023-04-19T03:48:28.686Z,0.00
2023-04-19T03:49:28.872Z,0.00
2023-04-19T03:50:29.018Z,5.62
2023-04-19T03:51:29.197Z,5.62
2023-04-19T03:52:29.383Z,5.62
2023-04-19T03:53:29.554Z,5.62
2023-04-19T03:54:29.744Z,5.62
2023-04-19T03:55:29.900Z,5.62
2023-04-19T03:56:30.117Z,5.62
2023-04-19T03:57:30.244Z,11.25
2023-04-19T03:58:30.438Z,11.25
2023-04-19T03:59:30.639Z,11.25
2023-04-19T04:00:30.792Z,11.25
2023-04-19T04:01:30.964Z,11.25
2023-04-19T04:02:31.259Z,16.88
2023-04-19T04:03:31.563Z,16.88
2023-04-19T04:04:31.824Z,16.88
2023-04-19T04:05:31.761Z,22.50
2023-04-19T04:06:31.825Z,22.50
2023-04-19T04:07:32.000Z,22.50
2023-04-19T04:08:32.197Z,28.12
2023-04-19T04:09:32.366Z,28.12
2023-04-19T04:10:32.551Z,28.12
2023-04-19T04:11:32.732Z,33.75
2023-04-19T04:12:32.909Z,33.75
2023-04-19T04:13:33.066Z,33.75
2023-04-19T04:14:33.275Z,39.38
2023-04-19T04:15:33.423Z,39.38
2023-04-19T04:16:33.645Z,45.00
2023-04-19T04:17:33.834Z,45.00
2023-04-19T04:18:33.968Z,50.62
2023-04-19T04:19:34.170Z,50.62
2023-04-19T04:20:34.348Z,56.25
2023-04-19T04:21:34.511Z,61.88
2023-04-19T04:22:34.674Z,73.12
2023-04-19T04:23:34.861Z,78.75
2023-04-19T04:24:35.030Z,90.00
2023-04-19T04:25:35.181Z,90.00
2023-04-19T04:26:35.340Z,90.00
2023-04-19T04:27:35.524Z,95.62
2023-04-19T04:28:35.718Z,106.88
2023-04-19T04:29:35.912Z,112.50
2023-04-19T04:30:36.082Z,123.75
2023-04-19T04:31:36.330Z,146.25
2023-04-19T04:32:36.454Z,157.50
2023-04-19T04:33:36.610Z,157.50
2023-04-19T04:34:36.792Z,151.88
2023-04-19T04:35:36.975Z,163.12
2023-04-19T04:36:37.145Z,163.12
2023-04-19T04:37:37.330Z,135.00
2023-04-19T04:38:37.540Z,168.75
2023-04-19T04:39:37.655Z,196.88
2023-04-19T04:40:37.829Z,225.00
2023-04-19T04:41:37.991Z,247.50
2023-04-19T04:42:38.157Z,270.00
2023-04-19T04:43:38.353Z,292.50
2023-04-19T04:44:38.561Z,309.38
2023-04-19T04:45:38.744Z,320.62
2023-04-19T04:46:38.876Z,337.50
2023-04-19T04:47:39.089Z,343.12
2023-04-19T04:48:39.240Z,354.38
2023-04-19T04:49:39.413Z,376.88
2023-04-19T04:50:39.584Z,371.25
2023-04-19T04:51:39.756Z,382.50
2023-04-19T04:52:39.957Z,393.75
2023-04-19T04:53:40.116Z,376.88
2023-04-19T04:54:40.292Z,405.00
2023-04-19T04:55:40.479Z,433.12
2023-04-19T04:56:40.732Z,438.75
2023-04-19T04:57:40.831Z,427.50
2023-04-19T04:58:41.029Z,405.00
2023-04-19T04:59:41.189Z,416.25
2023-04-19T05:00:41.325Z,450.00
2023-04-19T05:01:41.641Z,461.25
2023-04-19T05:02:41.740Z,438.75
2023-04-19T05:03:41.873Z,382.50
2023-04-19T05:04:42.171Z,393.75
2023-04-19T05:05:44.347Z,450.00
2023-04-19T05:06:42.405Z,489.38
2023-04-19T05:07:42.583Z,511.88
2023-04-19T05:08:42.780Z,511.88
2023-04-19T05:09:42.934Z,528.75
2023-04-19T05:10:43.119Z,585.00
2023-04-19T05:11:43.295Z,590.62
2023-04-19T05:12:43.499Z,585.00
2023-04-19T05:13:43.660Z,641.25
2023-04-19T05:14:43.814Z,663.75
2023-04-19T05:15:43.978Z,663.75
2023-04-19T05:16:44.205Z,680.62
2023-04-19T05:17:44.348Z,703.12
2023-04-19T05:18:44.519Z,720.00
2023-04-19T05:19:44.673Z,731.25
2023-04-19T05:20:44.829Z,748.12
2023-04-19T05:21:45.003Z,753.75
2023-04-19T05:22:45.166Z,776.25
2023-04-19T05:23:45.376Z,787.50
2023-04-19T05:24:45.522Z,776.25
2023-04-19T05:25:45.710Z,765.00
2023-04-19T05:26:45.859Z,748.12
2023-04-19T05:27:46.064Z,725.62
2023-04-19T05:28:46.251Z,725.62
2023-04-19T05:29:46.410Z,714.38
2023-04-19T05:30:46.614Z,646.88
2023-04-19T05:31:46.865Z,596.25
2023-04-19T05:32:46.954Z,551.25
2023-04-19T05:33:47.105Z,534.38
2023-04-19T05:34:47.253Z,540.00
2023-04-19T05:35:47.414Z,551.25
2023-04-19T05:36:47.574Z,556.88
2023-04-19T05:37:47.771Z,545.62
2023-04-19T05:38:47.915Z,545.62
2023-04-19T05:39:48.107Z,579.38
2023-04-19T05:40:48.243Z,573.75
2023-04-19T05:41:48.415Z,534.38
2023-04-19T05:42:48.610Z,528.75
2023-04-19T05:43:48.754Z,545.62
2023-04-19T05:44:48.941Z,540.00
2023-04-19T05:45:49.129Z,534.38
2023-04-19T05:46:49.322Z,551.25
2023-04-19T05:47:49.563Z,585.00
2023-04-19T05:48:49.642Z,641.25
2023-04-19T05:49:49.816Z,703.12
2023-04-19T05:50:49.965Z,736.88
2023-04-19T05:51:50.169Z,731.25
2023-04-19T05:52:50.354Z,725.62
2023-04-19T05:53:50.515Z,669.38
2023-04-19T05:54:50.677Z,624.38
2023-04-19T05:55:50.875Z,607.50
2023-04-19T05:56:51.042Z,585.00
2023-04-19T05:57:51.272Z,528.75
2023-04-19T05:58:51.372Z,478.12
2023-04-19T05:59:51.562Z,461.25
2023-04-19T06:00:51.796Z,472.50
2023-04-19T06:01:51.936Z,483.75
2023-04-19T06:02:52.201Z,500.62
2023-04-19T06:03:52.622Z,489.38
2023-04-19T06:04:52.489Z,466.88
2023-04-19T06:05:52.721Z,483.75
2023-04-19T06:06:52.810Z,500.62
2023-04-19T06:07:55.534Z,506.25
2023-04-19T06:08:55.005Z,556.88
2023-04-19T06:09:53.325Z,596.25
2023-04-19T06:10:58.237Z,607.50
2023-04-19T06:11:54.652Z,641.25
2023-04-19T06:12:53.796Z,725.62
2023-04-19T06:13:53.938Z,759.38
2023-04-19T06:14:54.127Z,720.00
2023-04-19T06:15:54.335Z,675.00
2023-04-19T06:16:54.455Z,703.12
2023-04-19T06:17:54.688Z,675.00
2023-04-19T06:18:54.774Z,686.25
2023-04-19T06:19:54.953Z,691.88
2023-04-19T06:20:55.124Z,624.38
2023-04-19T06:21:55.291Z,585.00
2023-04-19T06:22:55.582Z,573.75
2023-04-19T06:23:55.642Z,607.50
2023-04-19T06:24:55.806Z,590.62
2023-04-19T06:25:55.977Z,573.75
2023-04-19T06:26:56.148Z,540.00
2023-04-19T06:27:56.299Z,556.88
2023-04-19T06:28:56.483Z,540.00
2023-04-19T06:29:56.654Z,556.88
2023-04-19T06:30:56.831Z,573.75
2023-04-19T06:31:57.124Z,573.75
2023-04-19T06:32:57.231Z,590.62
2023-04-19T06:33:57.375Z,607.50
2023-04-19T06:34:57.537Z,641.25
2023-04-19T06:35:57.732Z,697.50
2023-04-19T06:36:57.912Z,770.62
2023-04-19T06:37:58.069Z,883.12
2023-04-19T06:38:58.243Z,956.25
2023-04-19T06:39:58.444Z,933.75
2023-04-19T06:40:58.586Z,855.00
2023-04-19T06:41:58.947Z,815.62
2023-04-19T06:42:58.895Z,849.38
2023-04-19T06:43:59.093Z,905.62
2023-04-19T06:44:59.255Z,973.12
2023-04-19T06:45:59.435Z,961.88
2023-04-19T06:46:59.607Z,916.88
2023-04-19T06:47:59.791Z,843.75
2023-04-19T06:48:59.928Z,810.00
2023-04-19T06:50:00.108Z,742.50
2023-04-19T06:51:00.253Z,742.50
2023-04-19T06:52:00.442Z,776.25
2023-04-19T06:53:00.894Z,798.75
2023-04-19T06:54:00.751Z,821.25
2023-04-19T06:55:00.927Z,804.38
2023-04-19T06:56:01.237Z,781.88
2023-04-19T06:57:01.264Z,753.75
2023-04-19T06:58:01.439Z,759.38
2023-04-19T06:59:01.582Z,742.50
2023-04-19T07:00:01.757Z,753.75
2023-04-19T07:01:01.990Z,770.62
2023-04-19T07:02:02.207Z,793.12
2023-04-19T07:03:02.438Z,759.38
2023-04-19T07:04:02.677Z,731.25
2023-04-19T07:05:02.645Z,703.12
2023-04-19T07:06:02.793Z,703.12
2023-04-19T07:07:02.954Z,691.88
2023-04-19T07:08:03.207Z,641.25
2023-04-19T07:09:03.317Z,652.50
2023-04-19T07:10:03.481Z,686.25
2023-04-19T07:11:03.633Z,731.25
2023-04-19T07:12:03.825Z,753.75
2023-04-19T07:13:03.958Z,793.12
2023-04-19T07:14:04.133Z,866.25
2023-04-19T07:15:04.285Z,978.75
2023-04-19T07:16:04.499Z,1057.50
2023-04-19T07:17:04.662Z,1119.38
2023-04-19T07:18:04.882Z,1175.62
2023-04-19T07:19:05.007Z,1203.75
2023-04-19T07:20:05.182Z,1254.38
2023-04-19T07:21:05.332Z,1310.62
2023-04-19T07:22:05.556Z,1333.12
2023-04-19T07:23:05.691Z,1299.38
2023-04-19T07:24:05.870Z,1254.38
2023-04-19T07:25:06.075Z,1181.25
2023-04-19T07:26:06.253Z,1153.12
2023-04-19T07:27:06.452Z,1248.75
2023-04-19T07:28:06.612Z,1288.12
2023-04-19T07:29:06.800Z,1254.38
2023-04-19T07:30:07.060Z,1265.62
2023-04-19T07:31:07.171Z,1288.12
2023-04-19T07:32:07.381Z,1293.75
2023-04-19T07:33:07.494Z,1305.00
2023-04-19T07:34:07.639Z,1344.38
2023-04-19T07:35:07.835Z,1366.88
2023-04-19T07:36:08.018Z,1406.25
2023-04-19T07:37:08.208Z,1417.50
2023-04-19T07:38:08.362Z,1428.75
2023-04-19T07:39:08.533Z,1434.38
2023-04-19T07:40:08.742Z,1400.62
2023-04-19T07:41:08.888Z,1400.62
2023-04-19T07:42:09.096Z,1417.50
2023-04-19T07:43:09.238Z,1445.62
2023-04-19T07:44:09.405Z,1451.25
2023-04-19T07:45:09.563Z,1406.25
2023-04-19T07:46:09.791Z,1333.12
2023-04-19T07:47:09.927Z,1288.12
2023-04-19T07:48:10.191Z,1243.12
2023-04-19T07:49:10.246Z,1220.62
2023-04-19T07:50:10.440Z,1265.62
2023-04-19T07:51:10.598Z,1316.25
2023-04-19T07:52:10.783Z,1355.62
2023-04-19T07:53:10.948Z,1383.75
2023-04-19T07:54:11.122Z,1395.00
2023-04-19T07:55:11.284Z,1428.75
2023-04-19T07:56:12.902Z,1518.75
2023-04-19T07:57:11.660Z,1608.75
2023-04-19T07:58:11.812Z,1687.50
2023-04-19T07:59:11.963Z,1766.25
2023-04-19T08:00:12.146Z,1828.12
2023-04-19T08:01:12.361Z,1828.12
2023-04-19T08:02:12.604Z,1867.50
2023-04-19T08:03:12.834Z,1929.38
2023-04-19T08:04:13.273Z,1957.50
2023-04-19T08:05:13.146Z,1963.12
2023-04-19T08:06:13.218Z,2019.38
2023-04-19T08:07:13.369Z,2081.25
2023-04-19T08:08:13.549Z,2058.75
2023-04-19T08:09:13.785Z,2041.88
2023-04-19T08:10:13.867Z,2047.50
2023-04-19T08:11:14.042Z,2047.50
2023-04-19T08:12:23.091Z,2058.75
2023-04-19T08:13:15.384Z,2047.50
2023-04-19T08:14:28.365Z,2025.00
2023-04-19T08:16:51.828Z,2002.50
2023-04-19T08:17:24.320Z,1980.00
2023-04-19T08:18:16.284Z,1985.62
2023-04-19T08:19:15.396Z,2025.00
2023-04-19T08:20:15.588Z,2098.12
2023-04-19T08:21:15.763Z,2086.88
2023-04-19T08:22:15.963Z,2064.38
2023-04-19T08:23:22.677Z,2070.00
2023-04-19T08:24:17.570Z,2008.12
2023-04-19T08:25:16.454Z,1991.25
2023-04-19T08:26:16.632Z,1985.62
2023-04-19T08:27:16.828Z,1906.88
2023-04-19T08:28:17.015Z,1575.00
2023-04-19T08:29:18.221Z,1316.25
2023-04-19T08:30:17.345Z,1153.12
2023-04-19T08:31:17.567Z,1035.00
2023-04-19T08:32:17.700Z,990.00
2023-04-19T08:33:17.991Z,967.50
2023-04-19T08:34:18.062Z,956.25
2023-04-19T08:35:18.233Z,945.00
2023-04-19T08:36:22.446Z,945.00
2023-04-19T08:37:19.612Z,945.00
2023-04-19T08:38:18.758Z,945.00
2023-04-19T08:39:31.807Z,961.88
2023-04-19T08:40:20.138Z,978.75
2023-04-19T08:41:19.288Z,995.62
2023-04-19T08:42:33.260Z,1018.12
2023-04-19T08:43:20.599Z,1091.25
2023-04-19T08:44:32.535Z,1153.12
2023-04-19T08:45:27.808Z,1260.00
2023-04-19T08:46:21.162Z,1614.38
2023-04-19T08:47:30.156Z,2025.00
2023-04-19T08:48:21.462Z,2081.25
2023-04-19T08:49:20.602Z,2424.38
2023-04-19T08:50:32.202Z,2396.25
2023-04-19T08:51:21.977Z,2379.38
2023-04-19T08:52:21.116Z,2328.75
2023-04-19T08:53:25.797Z,2250.00
2023-04-19T08:54:21.494Z,2278.12
2023-04-19T08:55:21.690Z,1186.88
2023-04-19T08:56:34.327Z,1479.38
2023-04-19T08:57:23.051Z,2334.38
2023-04-19T08:58:32.799Z,2295.00
2023-04-19T08:59:23.463Z,2306.25
2023-04-19T09:00:22.566Z,1333.12
2023-04-19T09:02:22.953Z,1226.25
2023-04-19T09:03:23.274Z,1310.62
2023-04-19T09:04:36.254Z,1186.88
2023-04-19T09:05:24.541Z,1068.75
2023-04-19T09:06:23.729Z,2705.62
2023-04-19T09:07:23.666Z,2688.75
2023-04-19T09:08:23.852Z,2621.25
2023-04-19T09:09:35.498Z,2171.25
2023-04-19T09:10:25.171Z,2064.38
2023-04-19T09:11:24.366Z,1878.75
2023-04-19T09:12:24.572Z,2143.12
2023-04-19T09:13:24.710Z,2244.38
2023-04-19T09:14:24.887Z,2165.62
2023-04-19T09:15:25.067Z,2536.88
2023-04-19T09:16:25.433Z,2587.50
2023-04-19T09:17:25.482Z,2508.75
2023-04-19T09:18:25.617Z,2053.12
2023-04-19T09:19:25.879Z,2525.62
2023-04-19T09:20:26.020Z,1175.62
2023-04-19T09:21:26.157Z,1096.88
2023-04-19T09:22:26.385Z,1175.62
2023-04-19T09:23:26.508Z,922.50
2023-04-19T09:24:26.690Z,978.75
2023-04-19T09:26:27.021Z,1096.88
2023-04-19T09:27:27.207Z,1895.62
2023-04-19T09:28:27.412Z,1428.75
2023-04-19T09:29:27.566Z,2103.75
2023-04-19T09:30:32.343Z,1788.75
2023-04-19T09:32:28.313Z,1181.25
2023-04-19T09:33:28.450Z,832.50
2023-04-19T09:34:28.441Z,742.50
2023-04-19T09:35:28.620Z,652.50
2023-04-19T09:36:28.777Z,697.50
2023-04-19T09:38:29.148Z,950.62
2023-04-19T09:39:29.311Z,945.00
2023-04-19T09:40:29.497Z,900.00
2023-04-19T09:41:29.675Z,720.00
2023-04-19T09:42:51.022Z,781.88
2023-04-19T09:43:53.744Z,2424.38
2023-04-19T09:44:53.003Z,2503.12
2023-04-19T09:45:31.532Z,2396.25
2023-04-19T09:46:30.629Z,2182.50
2023-04-19T09:47:30.776Z,1738.12
2023-04-19T09:48:30.925Z,1771.88
2023-04-19T09:49:46.001Z,2283.75
2023-04-19T09:50:33.816Z,2581.88
2023-04-19T09:51:32.503Z,2761.88
2023-04-19T09:52:31.623Z,2851.88
2023-04-19T09:53:31.841Z,2896.88
2023-04-19T09:54:31.996Z,1558.12
2023-04-19T09:55:39.196Z,1383.75
2023-04-19T09:56:33.359Z,1811.25
2023-04-19T09:57:32.508Z,3037.50
2023-04-19T09:59:32.863Z,1923.75
2023-04-19T10:00:38.979Z,1321.88
2023-04-19T10:01:34.230Z,1856.25
2023-04-19T10:02:33.477Z,888.75
2023-04-19T10:03:33.661Z,877.50
2023-04-19T10:04:54.672Z,1203.75
2023-04-19T10:05:34.950Z,804.38
2023-04-19T10:06:51.671Z,635.62
2023-04-19T10:07:35.250Z,950.62
2023-04-19T10:08:34.395Z,2913.75
2023-04-19T10:09:37.646Z,2891.25
2023-04-19T10:10:42.091Z,978.75
2023-04-19T10:11:35.905Z,855.00
2023-04-19T10:13:35.252Z,2497.50
2023-04-19T10:14:35.420Z,691.88
2023-04-19T10:15:49.523Z,832.50
2023-04-19T10:16:36.782Z,748.12
2023-04-19T10:17:35.978Z,720.00
2023-04-19T10:18:36.125Z,708.75
2023-04-19T10:19:36.289Z,765.00
2023-04-19T10:20:36.457Z,776.25
2023-04-19T10:21:36.622Z,714.38
2023-04-19T10:22:36.786Z,663.75
2023-04-19T10:23:36.965Z,596.25
2023-04-19T10:24:37.157Z,534.38
2023-04-19T10:25:37.341Z,534.38
2023-04-19T10:26:37.474Z,556.88
2023-04-19T10:27:37.657Z,540.00
2023-04-19T10:28:37.848Z,540.00
2023-04-19T10:29:38.003Z,534.38
2023-04-19T10:30:38.180Z,545.62
2023-04-19T10:31:38.404Z,495.00
2023-04-19T10:32:38.571Z,483.75
2023-04-19T10:33:38.734Z,500.62
2023-04-19T10:34:38.881Z,579.38
2023-04-19T10:35:39.154Z,523.12
2023-04-19T10:36:39.245Z,556.88
2023-04-19T10:37:39.443Z,652.50
2023-04-19T10:38:39.602Z,534.38
2023-04-19T10:39:39.779Z,489.38
2023-04-19T10:40:39.998Z,511.88
2023-04-19T10:41:40.145Z,618.75
2023-04-19T10:42:40.322Z,781.88
2023-04-19T10:43:40.501Z,680.62
2023-04-19T10:44:40.663Z,658.12
2023-04-19T10:45:40.897Z,714.38
2023-04-19T10:46:41.015Z,748.12
2023-04-19T10:47:41.311Z,601.88
2023-04-19T10:48:41.382Z,618.75
2023-04-19T10:49:41.573Z,596.25
2023-04-19T10:50:41.746Z,573.75
2023-04-19T10:51:41.896Z,534.38
2023-04-19T10:52:42.082Z,652.50
2023-04-19T10:53:42.264Z,725.62
2023-04-19T10:54:42.427Z,697.50
2023-04-19T10:55:42.633Z,579.38
2023-04-19T10:56:42.774Z,568.12
2023-04-19T10:57:42.962Z,523.12
2023-04-19T10:58:43.132Z,534.38
2023-04-19T10:59:43.337Z,590.62
2023-04-19T11:00:43.461Z,568.12
2023-04-19T11:01:43.741Z,545.62
2023-04-19T11:02:43.853Z,523.12
2023-04-19T11:03:44.286Z,556.88
2023-04-19T11:04:44.155Z,596.25
2023-04-19T11:05:44.319Z,579.38
2023-04-19T11:06:44.462Z,596.25
2023-04-19T11:07:44.650Z,551.25
2023-04-19T11:08:44.833Z,506.25
2023-04-19T11:09:45.003Z,489.38
2023-04-19T11:10:45.196Z,528.75
2023-04-19T11:11:45.395Z,596.25
2023-04-19T11:12:45.620Z,613.12
2023-04-19T11:13:45.742Z,624.38
2023-04-19T11:14:45.996Z,680.62
2023-04-19T11:15:46.116Z,669.38
2023-04-19T11:16:46.603Z,691.88
2023-04-19T11:17:46.489Z,697.50
2023-04-19T11:18:46.577Z,708.75
2023-04-19T11:19:46.786Z,720.00
2023-04-19T11:20:46.940Z,736.88
2023-04-19T11:21:47.108Z,703.12
2023-04-19T11:22:47.281Z,675.00
2023-04-19T11:23:47.429Z,708.75
2023-04-19T11:24:47.607Z,714.38
2023-04-19T11:25:47.807Z,720.00
2023-04-19T11:26:47.925Z,781.88
2023-04-19T11:27:48.120Z,838.12
2023-04-19T11:28:48.294Z,714.38
2023-04-19T11:29:48.559Z,686.25
2023-04-19T11:30:48.662Z,708.75
2023-04-19T11:31:48.957Z,703.12
2023-04-19T11:32:49.135Z,596.25
2023-04-19T11:33:49.152Z,568.12
2023-04-19T11:34:49.359Z,568.12
2023-04-19T11:35:49.526Z,630.00
2023-04-19T11:36:49.681Z,736.88
2023-04-19T11:37:49.834Z,804.38
2023-04-19T11:38:50.015Z,810.00
2023-04-19T11:39:50.173Z,804.38
2023-04-19T11:40:50.354Z,742.50
2023-04-19T11:41:50.507Z,641.25
2023-04-19T11:42:50.959Z,607.50
2023-04-19T11:43:50.895Z,590.62
2023-04-19T11:44:51.118Z,495.00
2023-04-19T11:45:51.228Z,433.12
2023-04-19T11:46:51.489Z,427.50
2023-04-19T11:47:51.595Z,427.50
2023-04-19T11:48:51.711Z,483.75
2023-04-19T11:49:51.901Z,596.25
2023-04-19T11:50:52.047Z,641.25
2023-04-19T11:51:52.259Z,573.75
2023-04-19T11:52:52.407Z,596.25
2023-04-19T11:53:52.596Z,601.88
2023-04-19T11:54:52.780Z,596.25
2023-04-19T11:55:52.974Z,607.50
2023-04-19T11:56:53.123Z,573.75
2023-04-19T11:57:53.321Z,568.12
2023-04-19T11:58:53.479Z,607.50
2023-04-19T11:59:53.716Z,708.75
2023-04-19T12:00:53.851Z,781.88
2023-04-19T12:01:54.021Z,815.62
2023-04-19T12:02:54.350Z,900.00
2023-04-19T12:03:54.661Z,967.50
2023-04-19T12:04:54.732Z,883.12
2023-04-19T12:05:54.798Z,832.50
2023-04-19T12:06:54.841Z,798.75
2023-04-19T12:07:55.035Z,781.88
2023-04-19T12:08:55.247Z,753.75
2023-04-19T12:09:55.393Z,703.12
2023-04-19T12:10:55.579Z,624.38
2023-04-19T12:11:55.737Z,590.62
2023-04-19T12:12:55.926Z,573.75
2023-04-19T12:13:56.143Z,568.12
2023-04-19T12:14:56.374Z,579.38
2023-04-19T12:15:56.492Z,624.38
2023-04-19T12:16:56.692Z,663.75
2023-04-19T12:17:57.637Z,680.62
2023-04-19T12:18:56.990Z,691.88
2023-04-19T12:19:57.177Z,675.00
2023-04-19T12:20:58.317Z,646.88
2023-04-19T12:21:57.486Z,607.50
2023-04-19T12:22:57.660Z,618.75
2023-04-19T12:23:57.861Z,675.00
2023-04-19T12:24:58.038Z,736.88
2023-04-19T12:25:58.198Z,731.25
2023-04-19T12:27:04.598Z,742.50
2023-04-19T12:27:59.537Z,748.12
2023-04-19T12:28:58.726Z,765.00
2023-04-19T12:29:58.890Z,810.00
2023-04-19T12:30:59.070Z,832.50
2023-04-19T12:31:59.261Z,832.50
2023-04-19T12:32:59.467Z,804.38
2023-04-19T12:33:59.639Z,798.75
2023-04-19T12:34:59.793Z,815.62
2023-04-19T12:36:00.065Z,815.62
2023-04-19T12:37:00.182Z,832.50
2023-04-19T12:38:00.349Z,883.12
2023-04-19T12:39:00.483Z,905.62
2023-04-19T12:40:00.632Z,860.62
2023-04-19T12:41:00.817Z,810.00
2023-04-19T12:42:01.000Z,765.00
2023-04-19T12:43:01.136Z,720.00
2023-04-19T12:44:01.316Z,708.75
2023-04-19T12:45:01.503Z,708.75
2023-04-19T12:46:01.787Z,686.25
2023-04-19T12:47:01.815Z,658.12
2023-04-19T12:48:02.038Z,691.88
2023-04-19T12:49:02.241Z,720.00